sensor_id;sensor_type;location;lat;lon;timestamp;P1;durP1;ratioP1;P2;durP2;ratioP2
1224;SDS011;602;48.000;7.840;2023-02-13T00:00:31;2.27;;;1.67;;
1224;SDS011;602;48.000;7.840;2023-02-13T00:02:59;4.40;;;2.37;;
1224;SDS011;602;48.000;7.840;2023-02-13T00:05:26;1.93;;;1.83;;
1224;SDS011;602;48.000;7.840;2023-02-13T00:07:53;9.10;;;3.60;;
1224;SDS011;602;48.000;7.840;2023-02-13T00:10:22;1.57;;;1.40;;
1224;SDS011;602;48.000;7.840;2023-02-13T00:12:49;10.23;;;3.03;;
1224;SDS011;602;48.000;7.840;2023-02-13T00:15:16;5.30;;;3.67;;
1224;SDS011;602;48.000;7.840;2023-02-13T00:17:43;2.20;;;1.53;;
1224;SDS011;602;48.000;7.840;2023-02-13T00:20:10;2.80;;;1.90;;
1224;SDS011;602;48.000;7.840;2023-02-13T00:22:37;2.23;;;2.03;;
1224;SDS011;602;48.000;7.840;2023-02-13T00:25:05;4.63;;;2.17;;
1224;SDS011;602;48.000;7.840;2023-02-13T00:27:34;2.00;;;1.73;;
1224;SDS011;602;48.000;7.840;2023-02-13T00:30:02;2.10;;;1.53;;
1224;SDS011;602;48.000;7.840;2023-02-13T00:32:29;1.73;;;1.00;;
1224;SDS011;602;48.000;7.840;2023-02-13T00:34:56;1.93;;;1.47;;
1224;SDS011;602;48.000;7.840;2023-02-13T00:37:23;1.43;;;1.33;;
1224;SDS011;602;48.000;7.840;2023-02-13T00:39:50;2.30;;;1.97;;
1224;SDS011;602;48.000;7.840;2023-02-13T00:42:17;3.87;;;1.80;;
1224;SDS011;602;48.000;7.840;2023-02-13T00:44:49;4.53;;;1.90;;
1224;SDS011;602;48.000;7.840;2023-02-13T00:47:16;3.37;;;1.80;;
1224;SDS011;602;48.000;7.840;2023-02-13T00:49:43;1.90;;;1.80;;
1224;SDS011;602;48.000;7.840;2023-02-13T00:52:12;1.83;;;1.73;;
1224;SDS011;602;48.000;7.840;2023-02-13T00:54:39;1.77;;;1.27;;
1224;SDS011;602;48.000;7.840;2023-02-13T00:57:06;2.23;;;2.00;;
1224;SDS011;602;48.000;7.840;2023-02-13T00:59:33;1.10;;;0.60;;
1224;SDS011;602;48.000;7.840;2023-02-13T01:02:01;4.77;;;1.70;;
1224;SDS011;602;48.000;7.840;2023-02-13T01:04:28;1.73;;;1.63;;
1224;SDS011;602;48.000;7.840;2023-02-13T01:06:55;2.80;;;1.60;;
1224;SDS011;602;48.000;7.840;2023-02-13T01:09:21;1.47;;;1.30;;
1224;SDS011;602;48.000;7.840;2023-02-13T01:11:49;1.20;;;1.03;;
1224;SDS011;602;48.000;7.840;2023-02-13T01:14:16;3.30;;;1.47;;
1224;SDS011;602;48.000;7.840;2023-02-13T01:16:43;1.43;;;1.23;;
1224;SDS011;602;48.000;7.840;2023-02-13T01:19:11;0.73;;;0.73;;
1224;SDS011;602;48.000;7.840;2023-02-13T01:21:38;0.73;;;0.70;;
1224;SDS011;602;48.000;7.840;2023-02-13T01:24:05;1.60;;;1.37;;
1224;SDS011;602;48.000;7.840;2023-02-13T01:26:32;0.90;;;0.90;;
1224;SDS011;602;48.000;7.840;2023-02-13T01:28:59;1.07;;;0.97;;
1224;SDS011;602;48.000;7.840;2023-02-13T01:31:26;2.07;;;1.70;;
1224;SDS011;602;48.000;7.840;2023-02-13T01:33:54;1.23;;;1.20;;
1224;SDS011;602;48.000;7.840;2023-02-13T01:36:24;1.60;;;0.93;;
1224;SDS011;602;48.000;7.840;2023-02-13T01:38:52;3.93;;;1.60;;
1224;SDS011;602;48.000;7.840;2023-02-13T01:41:20;1.47;;;1.37;;
1224;SDS011;602;48.000;7.840;2023-02-13T01:43:48;2.10;;;1.27;;
1224;SDS011;602;48.000;7.840;2023-02-13T01:46:20;1.23;;;1.03;;
1224;SDS011;602;48.000;7.840;2023-02-13T01:48:50;1.93;;;1.80;;
1224;SDS011;602;48.000;7.840;2023-02-13T01:51:21;0.90;;;0.90;;
1224;SDS011;602;48.000;7.840;2023-02-13T01:53:55;1.40;;;1.30;;
1224;SDS011;602;48.000;7.840;2023-02-13T01:56:26;1.23;;;1.00;;
1224;SDS011;602;48.000;7.840;2023-02-13T01:58:55;0.87;;;0.83;;
1224;SDS011;602;48.000;7.840;2023-02-13T02:01:25;2.33;;;1.30;;
1224;SDS011;602;48.000;7.840;2023-02-13T02:03:54;2.00;;;1.77;;
1224;SDS011;602;48.000;7.840;2023-02-13T02:06:28;2.57;;;1.07;;
1224;SDS011;602;48.000;7.840;2023-02-13T02:08:58;1.63;;;1.40;;
1224;SDS011;602;48.000;7.840;2023-02-13T02:11:30;2.73;;;1.50;;
1224;SDS011;602;48.000;7.840;2023-02-13T02:14:01;0.70;;;0.60;;
1224;SDS011;602;48.000;7.840;2023-02-13T02:16:28;0.87;;;0.83;;
1224;SDS011;602;48.000;7.840;2023-02-13T02:18:57;1.40;;;1.27;;
1224;SDS011;602;48.000;7.840;2023-02-13T02:21:42;0.80;;;0.80;;
1224;SDS011;602;48.000;7.840;2023-02-13T02:24:38;2.10;;;1.40;;
1224;SDS011;602;48.000;7.840;2023-02-13T02:33:37;1.00;;;0.87;;
1224;SDS011;602;48.000;7.840;2023-02-13T02:36:29;1.07;;;1.00;;
1224;SDS011;602;48.000;7.840;2023-02-13T02:39:07;0.80;;;0.80;;
1224;SDS011;602;48.000;7.840;2023-02-13T02:41:43;0.93;;;0.93;;
1224;SDS011;602;48.000;7.840;2023-02-13T02:44:21;2.60;;;0.90;;
1224;SDS011;602;48.000;7.840;2023-02-13T02:47:00;1.73;;;1.63;;
1224;SDS011;602;48.000;7.840;2023-02-13T02:50:12;1.07;;;0.90;;
1224;SDS011;602;48.000;7.840;2023-02-13T02:52:50;1.30;;;1.20;;
1224;SDS011;602;48.000;7.840;2023-02-13T02:55:27;2.10;;;1.20;;
1224;SDS011;602;48.000;7.840;2023-02-13T02:58:02;1.17;;;0.97;;
1224;SDS011;602;48.000;7.840;2023-02-13T03:00:53;0.60;;;0.60;;
1224;SDS011;602;48.000;7.840;2023-02-13T03:03:40;1.27;;;1.17;;
1224;SDS011;602;48.000;7.840;2023-02-13T03:06:26;0.70;;;0.70;;
1224;SDS011;602;48.000;7.840;2023-02-13T03:08:59;1.37;;;1.30;;
1224;SDS011;602;48.000;7.840;2023-02-13T03:11:48;1.67;;;1.30;;
1224;SDS011;602;48.000;7.840;2023-02-13T03:14:33;4.10;;;1.40;;
1224;SDS011;602;48.000;7.840;2023-02-13T03:17:00;1.10;;;0.83;;
1224;SDS011;602;48.000;7.840;2023-02-13T03:19:54;1.60;;;1.20;;
1224;SDS011;602;48.000;7.840;2023-02-13T03:22:46;0.80;;;0.80;;
1224;SDS011;602;48.000;7.840;2023-02-13T03:25:25;0.97;;;0.97;;
1224;SDS011;602;48.000;7.840;2023-02-13T03:28:00;0.97;;;0.80;;
1224;SDS011;602;48.000;7.840;2023-02-13T03:31:00;0.63;;;0.50;;
1224;SDS011;602;48.000;7.840;2023-02-13T03:33:36;1.90;;;1.80;;
1224;SDS011;602;48.000;7.840;2023-02-13T03:36:16;0.47;;;0.47;;
1224;SDS011;602;48.000;7.840;2023-02-13T03:39:10;1.10;;;0.60;;
1224;SDS011;602;48.000;7.840;2023-02-13T03:41:44;0.87;;;0.60;;
1224;SDS011;602;48.000;7.840;2023-02-13T03:44:16;0.97;;;0.97;;
1224;SDS011;602;48.000;7.840;2023-02-13T03:46:49;1.57;;;0.73;;
1224;SDS011;602;48.000;7.840;2023-02-13T03:49:19;1.33;;;1.07;;
1224;SDS011;602;48.000;7.840;2023-02-13T03:52:06;1.10;;;1.00;;
1224;SDS011;602;48.000;7.840;2023-02-13T03:54:40;2.30;;;0.90;;
1224;SDS011;602;48.000;7.840;2023-02-13T03:57:28;3.93;;;1.03;;
1224;SDS011;602;48.000;7.840;2023-02-13T04:00:17;0.63;;;0.63;;
1224;SDS011;602;48.000;7.840;2023-02-13T04:02:48;1.37;;;1.10;;
1224;SDS011;602;48.000;7.840;2023-02-13T04:05:21;1.20;;;1.13;;
1224;SDS011;602;48.000;7.840;2023-02-13T04:07:50;0.80;;;0.80;;
1224;SDS011;602;48.000;7.840;2023-02-13T04:10:19;0.40;;;0.40;;
1224;SDS011;602;48.000;7.840;2023-02-13T04:12:50;1.33;;;0.50;;
1224;SDS011;602;48.000;7.840;2023-02-13T04:15:24;0.40;;;0.40;;
1224;SDS011;602;48.000;7.840;2023-02-13T04:17:56;1.27;;;0.70;;
1224;SDS011;602;48.000;7.840;2023-02-13T04:20:29;1.23;;;1.07;;
1224;SDS011;602;48.000;7.840;2023-02-13T04:22:56;1.53;;;0.83;;
1224;SDS011;602;48.000;7.840;2023-02-13T04:25:32;3.60;;;1.30;;
1224;SDS011;602;48.000;7.840;2023-02-13T04:27:59;1.70;;;1.23;;
1224;SDS011;602;48.000;7.840;2023-02-13T04:30:26;2.83;;;1.73;;
1224;SDS011;602;48.000;7.840;2023-02-13T04:32:53;1.50;;;0.73;;
1224;SDS011;602;48.000;7.840;2023-02-13T04:35:20;1.03;;;0.93;;
1224;SDS011;602;48.000;7.840;2023-02-13T04:37:47;2.90;;;1.80;;
1224;SDS011;602;48.000;7.840;2023-02-13T04:40:13;1.40;;;1.10;;
1224;SDS011;602;48.000;7.840;2023-02-13T04:42:42;1.93;;;1.50;;
1224;SDS011;602;48.000;7.840;2023-02-13T04:45:09;3.67;;;1.97;;
1224;SDS011;602;48.000;7.840;2023-02-13T04:47:36;2.27;;;1.23;;
1224;SDS011;602;48.000;7.840;2023-02-13T04:50:03;1.53;;;1.40;;
1224;SDS011;602;48.000;7.840;2023-02-13T04:52:30;3.95;;;1.50;;
1224;SDS011;602;48.000;7.840;2023-02-13T04:54:57;0.40;;;0.40;;
1224;SDS011;602;48.000;7.840;2023-02-13T04:57:24;5.63;;;1.40;;
1224;SDS011;602;48.000;7.840;2023-02-13T04:59:52;2.30;;;1.17;;
1224;SDS011;602;48.000;7.840;2023-02-13T05:02:19;2.50;;;2.20;;
1224;SDS011;602;48.000;7.840;2023-02-13T05:04:45;2.37;;;1.33;;
1224;SDS011;602;48.000;7.840;2023-02-13T05:07:12;1.10;;;0.90;;
1224;SDS011;602;48.000;7.840;2023-02-13T05:09:39;3.03;;;1.33;;
1224;SDS011;602;48.000;7.840;2023-02-13T05:12:06;0.80;;;0.50;;
1224;SDS011;602;48.000;7.840;2023-02-13T05:14:33;1.33;;;0.97;;
1224;SDS011;602;48.000;7.840;2023-02-13T05:17:01;1.13;;;1.13;;
1224;SDS011;602;48.000;7.840;2023-02-13T05:19:28;1.57;;;1.47;;
1224;SDS011;602;48.000;7.840;2023-02-13T05:21:55;2.50;;;0.87;;
1224;SDS011;602;48.000;7.840;2023-02-13T05:24:35;1.80;;;1.63;;
1224;SDS011;602;48.000;7.840;2023-02-13T05:27:02;1.43;;;0.80;;
1224;SDS011;602;48.000;7.840;2023-02-13T05:29:29;2.40;;;1.90;;
1224;SDS011;602;48.000;7.840;2023-02-13T05:31:56;1.27;;;1.17;;
1224;SDS011;602;48.000;7.840;2023-02-13T05:34:25;0.80;;;0.80;;
1224;SDS011;602;48.000;7.840;2023-02-13T05:36:53;7.40;;;0.80;;
1224;SDS011;602;48.000;7.840;2023-02-13T05:39:20;3.70;;;1.53;;
1224;SDS011;602;48.000;7.840;2023-02-13T05:41:48;0.83;;;0.60;;
1224;SDS011;602;48.000;7.840;2023-02-13T05:44:15;4.90;;;2.20;;
1224;SDS011;602;48.000;7.840;2023-02-13T05:46:42;2.57;;;1.77;;
1224;SDS011;602;48.000;7.840;2023-02-13T05:49:10;2.80;;;1.70;;
1224;SDS011;602;48.000;7.840;2023-02-13T05:51:39;1.63;;;1.37;;
1224;SDS011;602;48.000;7.840;2023-02-13T05:54:07;1.47;;;1.07;;
1224;SDS011;602;48.000;7.840;2023-02-13T05:56:34;1.63;;;1.50;;
1224;SDS011;602;48.000;7.840;2023-02-13T05:59:00;3.73;;;1.37;;
1224;SDS011;602;48.000;7.840;2023-02-13T06:01:27;1.40;;;1.00;;
1224;SDS011;602;48.000;7.840;2023-02-13T06:03:54;1.40;;;1.10;;
1224;SDS011;602;48.000;7.840;2023-02-13T06:06:21;1.73;;;1.40;;
1224;SDS011;602;48.000;7.840;2023-02-13T06:08:50;2.50;;;1.30;;
1224;SDS011;602;48.000;7.840;2023-02-13T06:11:17;2.33;;;1.27;;
1224;SDS011;602;48.000;7.840;2023-02-13T06:13:44;0.43;;;0.43;;
1224;SDS011;602;48.000;7.840;2023-02-13T06:16:11;2.63;;;0.80;;
1224;SDS011;602;48.000;7.840;2023-02-13T06:18:38;1.57;;;1.47;;
1224;SDS011;602;48.000;7.840;2023-02-13T06:21:05;1.40;;;1.10;;
1224;SDS011;602;48.000;7.840;2023-02-13T06:23:33;0.83;;;0.83;;
1224;SDS011;602;48.000;7.840;2023-02-13T06:26:02;1.40;;;1.30;;
1224;SDS011;602;48.000;7.840;2023-02-13T06:28:30;0.93;;;0.83;;
1224;SDS011;602;48.000;7.840;2023-02-13T06:30:57;1.50;;;0.90;;
1224;SDS011;602;48.000;7.840;2023-02-13T06:33:24;2.40;;;2.27;;
1224;SDS011;602;48.000;7.840;2023-02-13T06:35:51;0.63;;;0.63;;
1224;SDS011;602;48.000;7.840;2023-02-13T06:38:18;4.13;;;1.50;;
1224;SDS011;602;48.000;7.840;2023-02-13T06:40:45;2.30;;;1.07;;
1224;SDS011;602;48.000;7.840;2023-02-13T06:43:14;1.93;;;1.53;;
1224;SDS011;602;48.000;7.840;2023-02-13T06:45:42;4.40;;;2.60;;
1224;SDS011;602;48.000;7.840;2023-02-13T06:48:10;2.80;;;2.20;;
1224;SDS011;602;48.000;7.840;2023-02-13T06:50:38;1.70;;;1.20;;
1224;SDS011;602;48.000;7.840;2023-02-13T06:53:05;2.50;;;2.30;;
1224;SDS011;602;48.000;7.840;2023-02-13T06:55:32;4.70;;;2.80;;
1224;SDS011;602;48.000;7.840;2023-02-13T06:57:59;6.60;;;2.63;;
1224;SDS011;602;48.000;7.840;2023-02-13T07:00:27;1.80;;;1.70;;
1224;SDS011;602;48.000;7.840;2023-02-13T07:02:54;2.00;;;1.90;;
1224;SDS011;602;48.000;7.840;2023-02-13T07:05:27;3.17;;;2.03;;
1224;SDS011;602;48.000;7.840;2023-02-13T07:07:54;2.33;;;2.13;;
1224;SDS011;602;48.000;7.840;2023-02-13T07:10:22;9.40;;;2.00;;
1224;SDS011;602;48.000;7.840;2023-02-13T07:12:48;2.93;;;1.70;;
1224;SDS011;602;48.000;7.840;2023-02-13T07:15:15;2.70;;;1.40;;
1224;SDS011;602;48.000;7.840;2023-02-13T07:17:44;1.57;;;1.20;;
1224;SDS011;602;48.000;7.840;2023-02-13T07:20:11;2.27;;;1.80;;
1224;SDS011;602;48.000;7.840;2023-02-13T07:22:38;10.73;;;1.33;;
1224;SDS011;602;48.000;7.840;2023-02-13T07:25:05;1.50;;;1.20;;
1224;SDS011;602;48.000;7.840;2023-02-13T07:27:32;1.70;;;1.47;;
1224;SDS011;602;48.000;7.840;2023-02-13T07:29:59;1.83;;;1.60;;
1224;SDS011;602;48.000;7.840;2023-02-13T07:32:26;2.23;;;1.70;;
1224;SDS011;602;48.000;7.840;2023-02-13T07:34:54;1.67;;;1.57;;
1224;SDS011;602;48.000;7.840;2023-02-13T07:37:21;2.80;;;2.47;;
1224;SDS011;602;48.000;7.840;2023-02-13T07:39:48;3.30;;;2.30;;
1224;SDS011;602;48.000;7.840;2023-02-13T07:42:15;3.47;;;2.37;;
1224;SDS011;602;48.000;7.840;2023-02-13T07:44:42;10.03;;;3.03;;
1224;SDS011;602;48.000;7.840;2023-02-13T07:47:08;3.50;;;3.20;;
1224;SDS011;602;48.000;7.840;2023-02-13T07:49:35;2.93;;;2.70;;
1224;SDS011;602;48.000;7.840;2023-02-13T07:52:04;7.93;;;4.20;;
1224;SDS011;602;48.000;7.840;2023-02-13T07:54:31;2.10;;;1.87;;
1224;SDS011;602;48.000;7.840;2023-02-13T07:56:58;5.20;;;2.70;;
1224;SDS011;602;48.000;7.840;2023-02-13T07:59:25;8.57;;;4.60;;
1224;SDS011;602;48.000;7.840;2023-02-13T08:01:52;6.97;;;3.97;;
1224;SDS011;602;48.000;7.840;2023-02-13T08:04:18;3.40;;;3.03;;
1224;SDS011;602;48.000;7.840;2023-02-13T08:06:45;5.23;;;3.00;;
1224;SDS011;602;48.000;7.840;2023-02-13T08:09:16;5.00;;;3.10;;
1224;SDS011;602;48.000;7.840;2023-02-13T08:12:03;1.97;;;1.87;;
1224;SDS011;602;48.000;7.840;2023-02-13T08:14:32;4.13;;;3.37;;
1224;SDS011;602;48.000;7.840;2023-02-13T08:16:59;2.40;;;2.20;;
1224;SDS011;602;48.000;7.840;2023-02-13T08:19:26;4.20;;;2.97;;
1224;SDS011;602;48.000;7.840;2023-02-13T08:21:54;4.37;;;2.77;;
1224;SDS011;602;48.000;7.840;2023-02-13T08:24:22;2.13;;;1.80;;
1224;SDS011;602;48.000;7.840;2023-02-13T08:26:49;3.67;;;2.47;;
1224;SDS011;602;48.000;7.840;2023-02-13T08:29:16;3.33;;;2.07;;
1224;SDS011;602;48.000;7.840;2023-02-13T08:31:44;2.23;;;1.90;;
1224;SDS011;602;48.000;7.840;2023-02-13T08:34:10;2.33;;;2.13;;
1224;SDS011;602;48.000;7.840;2023-02-13T08:36:37;2.90;;;2.47;;
1224;SDS011;602;48.000;7.840;2023-02-13T08:39:04;4.57;;;2.67;;
1224;SDS011;602;48.000;7.840;2023-02-13T08:41:32;4.40;;;2.40;;
1224;SDS011;602;48.000;7.840;2023-02-13T08:43:59;7.27;;;2.97;;
1224;SDS011;602;48.000;7.840;2023-02-13T08:46:26;3.13;;;1.77;;
1224;SDS011;602;48.000;7.840;2023-02-13T08:48:53;1.57;;;1.47;;
1224;SDS011;602;48.000;7.840;2023-02-13T08:51:20;7.37;;;2.70;;
1224;SDS011;602;48.000;7.840;2023-02-13T08:53:47;4.93;;;4.17;;
1224;SDS011;602;48.000;7.840;2023-02-13T08:56:14;5.60;;;3.07;;
1224;SDS011;602;48.000;7.840;2023-02-13T08:58:43;6.40;;;3.10;;
1224;SDS011;602;48.000;7.840;2023-02-13T09:01:10;4.73;;;4.27;;
1224;SDS011;602;48.000;7.840;2023-02-13T09:03:36;4.00;;;3.00;;
1224;SDS011;602;48.000;7.840;2023-02-13T09:06:03;3.70;;;3.20;;
1224;SDS011;602;48.000;7.840;2023-02-13T09:08:34;3.83;;;2.73;;
1224;SDS011;602;48.000;7.840;2023-02-13T09:11:01;6.87;;;3.60;;
1224;SDS011;602;48.000;7.840;2023-02-13T09:13:30;4.30;;;3.30;;
1224;SDS011;602;48.000;7.840;2023-02-13T09:16:00;4.43;;;3.10;;
1224;SDS011;602;48.000;7.840;2023-02-13T09:18:27;5.17;;;2.90;;
1224;SDS011;602;48.000;7.840;2023-02-13T09:20:58;5.77;;;3.93;;
1224;SDS011;602;48.000;7.840;2023-02-13T09:23:26;8.13;;;5.07;;
1224;SDS011;602;48.000;7.840;2023-02-13T09:25:57;4.73;;;3.83;;
1224;SDS011;602;48.000;7.840;2023-02-13T09:28:25;5.37;;;4.60;;
1224;SDS011;602;48.000;7.840;2023-02-13T09:30:52;8.53;;;3.63;;
1224;SDS011;602;48.000;7.840;2023-02-13T09:33:20;7.30;;;4.57;;
1224;SDS011;602;48.000;7.840;2023-02-13T09:35:47;7.60;;;5.57;;
1224;SDS011;602;48.000;7.840;2023-02-13T09:38:14;11.43;;;5.90;;
1224;SDS011;602;48.000;7.840;2023-02-13T09:40:42;5.63;;;4.37;;
1224;SDS011;602;48.000;7.840;2023-02-13T09:43:14;10.07;;;6.60;;
1224;SDS011;602;48.000;7.840;2023-02-13T09:45:45;8.77;;;5.27;;
1224;SDS011;602;48.000;7.840;2023-02-13T09:48:17;10.53;;;5.93;;
1224;SDS011;602;48.000;7.840;2023-02-13T09:50:51;8.40;;;5.57;;
1224;SDS011;602;48.000;7.840;2023-02-13T09:53:19;24.83;;;9.03;;
1224;SDS011;602;48.000;7.840;2023-02-13T09:55:50;21.63;;;10.63;;
1224;SDS011;602;48.000;7.840;2023-02-13T09:58:31;10.07;;;7.10;;
1224;SDS011;602;48.000;7.840;2023-02-13T10:01:04;8.70;;;6.13;;
1224;SDS011;602;48.000;7.840;2023-02-13T10:03:44;10.77;;;5.43;;
1224;SDS011;602;48.000;7.840;2023-02-13T10:06:18;11.00;;;6.37;;
1224;SDS011;602;48.000;7.840;2023-02-13T10:08:55;9.10;;;5.53;;
1224;SDS011;602;48.000;7.840;2023-02-13T10:11:42;9.33;;;8.37;;
1224;SDS011;602;48.000;7.840;2023-02-13T10:14:26;9.37;;;6.23;;
1224;SDS011;602;48.000;7.840;2023-02-13T10:17:01;7.57;;;5.70;;
1224;SDS011;602;48.000;7.840;2023-02-13T10:19:36;9.17;;;6.47;;
1224;SDS011;602;48.000;7.840;2023-02-13T10:22:09;11.93;;;7.63;;
1224;SDS011;602;48.000;7.840;2023-02-13T10:24:43;12.70;;;7.90;;
1224;SDS011;602;48.000;7.840;2023-02-13T10:27:18;6.53;;;5.67;;
1224;SDS011;602;48.000;7.840;2023-02-13T10:29:49;8.87;;;5.60;;
1224;SDS011;602;48.000;7.840;2023-02-13T10:35:37;8.40;;;7.50;;
1224;SDS011;602;48.000;7.840;2023-02-13T10:38:11;10.43;;;7.37;;
1224;SDS011;602;48.000;7.840;2023-02-13T10:40:43;10.87;;;7.13;;
1224;SDS011;602;48.000;7.840;2023-02-13T10:43:23;10.30;;;7.80;;
1224;SDS011;602;48.000;7.840;2023-02-13T10:45:58;10.80;;;7.97;;
1224;SDS011;602;48.000;7.840;2023-02-13T10:51:28;10.47;;;7.50;;
1224;SDS011;602;48.000;7.840;2023-02-13T10:57:02;7.40;;;5.33;;
1224;SDS011;602;48.000;7.840;2023-02-13T10:59:41;9.97;;;6.47;;
1224;SDS011;602;48.000;7.840;2023-02-13T11:02:21;9.00;;;6.53;;
1224;SDS011;602;48.000;7.840;2023-02-13T11:04:51;8.87;;;6.77;;
1224;SDS011;602;48.000;7.840;2023-02-13T11:07:24;10.03;;;6.90;;
1224;SDS011;602;48.000;7.840;2023-02-13T11:09:52;11.07;;;6.20;;
1224;SDS011;602;48.000;7.840;2023-02-13T11:12:25;10.10;;;6.20;;
1224;SDS011;602;48.000;7.840;2023-02-13T11:14:54;7.60;;;6.67;;
1224;SDS011;602;48.000;7.840;2023-02-13T11:17:22;11.13;;;8.27;;
1224;SDS011;602;48.000;7.840;2023-02-13T11:19:52;9.90;;;7.40;;
1224;SDS011;602;48.000;7.840;2023-02-13T11:22:27;10.07;;;8.07;;
1224;SDS011;602;48.000;7.840;2023-02-13T11:24:57;9.87;;;6.83;;
1224;SDS011;602;48.000;7.840;2023-02-13T11:27:27;11.80;;;7.33;;
1224;SDS011;602;48.000;7.840;2023-02-13T11:29:58;13.27;;;7.30;;
1224;SDS011;602;48.000;7.840;2023-02-13T11:32:27;11.70;;;6.97;;
1224;SDS011;602;48.000;7.840;2023-02-13T11:34:55;13.27;;;9.10;;
1224;SDS011;602;48.000;7.840;2023-02-13T11:37:23;7.57;;;5.63;;
1224;SDS011;602;48.000;7.840;2023-02-13T11:39:54;10.77;;;6.90;;
1224;SDS011;602;48.000;7.840;2023-02-13T11:42:27;9.00;;;7.10;;
1224;SDS011;602;48.000;7.840;2023-02-13T11:45:00;7.33;;;5.77;;
1224;SDS011;602;48.000;7.840;2023-02-13T11:47:39;9.80;;;6.80;;
1224;SDS011;602;48.000;7.840;2023-02-13T11:50:18;9.77;;;6.47;;
1224;SDS011;602;48.000;7.840;2023-02-13T11:52:57;14.27;;;8.90;;
1224;SDS011;602;48.000;7.840;2023-02-13T11:55:29;10.83;;;7.93;;
1224;SDS011;602;48.000;7.840;2023-02-13T11:57:58;8.47;;;6.43;;
1224;SDS011;602;48.000;7.840;2023-02-13T12:00:28;8.37;;;7.43;;
1224;SDS011;602;48.000;7.840;2023-02-13T12:03:02;9.70;;;7.60;;
1224;SDS011;602;48.000;7.840;2023-02-13T12:05:58;11.50;;;7.67;;
1224;SDS011;602;48.000;7.840;2023-02-13T12:08:28;8.33;;;7.53;;
1224;SDS011;602;48.000;7.840;2023-02-13T12:10:56;10.50;;;6.67;;
1224;SDS011;602;48.000;7.840;2023-02-13T12:13:26;10.30;;;7.93;;
1224;SDS011;602;48.000;7.840;2023-02-13T12:15:58;11.60;;;8.40;;
1224;SDS011;602;48.000;7.840;2023-02-13T12:18:29;9.50;;;7.40;;
1224;SDS011;602;48.000;7.840;2023-02-13T12:21:00;13.20;;;7.40;;
1224;SDS011;602;48.000;7.840;2023-02-13T12:23:33;11.60;;;7.67;;
1224;SDS011;602;48.000;7.840;2023-02-13T12:26:14;8.57;;;5.90;;
1224;SDS011;602;48.000;7.840;2023-02-13T12:28:56;9.87;;;6.90;;
1224;SDS011;602;48.000;7.840;2023-02-13T12:31:46;10.97;;;8.47;;
1224;SDS011;602;48.000;7.840;2023-02-13T12:34:26;11.03;;;8.33;;
1224;SDS011;602;48.000;7.840;2023-02-13T12:37:21;10.60;;;8.03;;
1224;SDS011;602;48.000;7.840;2023-02-13T12:39:59;12.47;;;7.70;;
1224;SDS011;602;48.000;7.840;2023-02-13T12:42:42;10.60;;;8.20;;
1224;SDS011;602;48.000;7.840;2023-02-13T12:45:20;12.10;;;8.30;;
1224;SDS011;602;48.000;7.840;2023-02-13T12:48:01;10.53;;;8.50;;
1224;SDS011;602;48.000;7.840;2023-02-13T12:50:54;12.37;;;8.17;;
1224;SDS011;602;48.000;7.840;2023-02-13T12:53:32;11.97;;;8.00;;
1224;SDS011;602;48.000;7.840;2023-02-13T12:56:21;13.47;;;8.97;;
1224;SDS011;602;48.000;7.840;2023-02-13T12:59:06;12.63;;;7.10;;
1224;SDS011;602;48.000;7.840;2023-02-13T13:01:42;10.77;;;7.97;;
1224;SDS011;602;48.000;7.840;2023-02-13T13:04:21;12.10;;;9.50;;
1224;SDS011;602;48.000;7.840;2023-02-13T13:07:00;11.93;;;8.20;;
1224;SDS011;602;48.000;7.840;2023-02-13T13:09:47;10.57;;;7.30;;
1224;SDS011;602;48.000;7.840;2023-02-13T13:12:30;10.77;;;8.77;;
1224;SDS011;602;48.000;7.840;2023-02-13T13:15:09;11.23;;;7.83;;
1224;SDS011;602;48.000;7.840;2023-02-13T13:17:45;10.73;;;7.90;;
1224;SDS011;602;48.000;7.840;2023-02-13T13:20:31;11.13;;;7.70;;
1224;SDS011;602;48.000;7.840;2023-02-13T13:23:17;10.53;;;7.27;;
1224;SDS011;602;48.000;7.840;2023-02-13T13:25:51;8.37;;;6.07;;
1224;SDS011;602;48.000;7.840;2023-02-13T13:28:28;14.30;;;7.60;;
1224;SDS011;602;48.000;7.840;2023-02-13T13:31:00;8.63;;;7.20;;
1224;SDS011;602;48.000;7.840;2023-02-13T13:33:28;11.40;;;7.47;;
1224;SDS011;602;48.000;7.840;2023-02-13T13:35:58;15.00;;;9.40;;
1224;SDS011;602;48.000;7.840;2023-02-13T13:38:32;9.90;;;7.00;;
1224;SDS011;602;48.000;7.840;2023-02-13T13:41:08;12.93;;;8.63;;
1224;SDS011;602;48.000;7.840;2023-02-13T13:43:41;12.43;;;8.07;;
1224;SDS011;602;48.000;7.840;2023-02-13T13:46:23;14.27;;;9.53;;
1224;SDS011;602;48.000;7.840;2023-02-13T13:49:05;13.20;;;8.13;;
1224;SDS011;602;48.000;7.840;2023-02-13T13:51:42;13.90;;;9.67;;
1224;SDS011;602;48.000;7.840;2023-02-13T13:54:21;11.47;;;8.57;;
1224;SDS011;602;48.000;7.840;2023-02-13T13:57:03;11.60;;;7.30;;
1224;SDS011;602;48.000;7.840;2023-02-13T14:02:39;11.33;;;7.80;;
1224;SDS011;602;48.000;7.840;2023-02-13T14:05:20;15.47;;;9.97;;
1224;SDS011;602;48.000;7.840;2023-02-13T14:07:52;10.60;;;8.47;;
1224;SDS011;602;48.000;7.840;2023-02-13T14:13:33;11.87;;;8.27;;
1224;SDS011;602;48.000;7.840;2023-02-13T14:16:02;8.97;;;6.13;;
1224;SDS011;602;48.000;7.840;2023-02-13T14:18:31;12.30;;;8.73;;
1224;SDS011;602;48.000;7.840;2023-02-13T14:21:00;13.83;;;8.63;;
1224;SDS011;602;48.000;7.840;2023-02-13T14:23:32;9.57;;;7.70;;
1224;SDS011;602;48.000;7.840;2023-02-13T14:32:06;14.30;;;8.33;;
1224;SDS011;602;48.000;7.840;2023-02-13T14:34:48;12.70;;;7.27;;
1224;SDS011;602;48.000;7.840;2023-02-13T14:37:20;10.17;;;6.90;;
1224;SDS011;602;48.000;7.840;2023-02-13T14:43:07;8.30;;;6.63;;
1224;SDS011;602;48.000;7.840;2023-02-13T14:45:56;10.30;;;8.40;;
1224;SDS011;602;48.000;7.840;2023-02-13T14:48:31;14.37;;;9.30;;
1224;SDS011;602;48.000;7.840;2023-02-13T14:51:04;8.73;;;5.87;;
1224;SDS011;602;48.000;7.840;2023-02-13T14:53:37;12.00;;;8.77;;
1224;SDS011;602;48.000;7.840;2023-02-13T14:56:13;9.10;;;6.83;;
1224;SDS011;602;48.000;7.840;2023-02-13T14:58:44;9.53;;;7.40;;
1224;SDS011;602;48.000;7.840;2023-02-13T15:01:17;7.90;;;7.20;;
1224;SDS011;602;48.000;7.840;2023-02-13T15:03:50;10.90;;;7.03;;
1224;SDS011;602;48.000;7.840;2023-02-13T15:06:26;13.63;;;9.40;;
1224;SDS011;602;48.000;7.840;2023-02-13T15:08:58;8.77;;;6.70;;
1224;SDS011;602;48.000;7.840;2023-02-13T15:11:35;10.13;;;7.93;;
1224;SDS011;602;48.000;7.840;2023-02-13T15:14:16;12.63;;;9.90;;
1224;SDS011;602;48.000;7.840;2023-02-13T15:16:45;8.97;;;6.63;;
1224;SDS011;602;48.000;7.840;2023-02-13T15:19:15;9.47;;;7.90;;
1224;SDS011;602;48.000;7.840;2023-02-13T15:21:49;10.20;;;6.40;;
1224;SDS011;602;48.000;7.840;2023-02-13T15:24:20;12.00;;;8.00;;
1224;SDS011;602;48.000;7.840;2023-02-13T15:26:49;11.57;;;8.63;;
1224;SDS011;602;48.000;7.840;2023-02-13T15:29:24;10.20;;;7.60;;
1224;SDS011;602;48.000;7.840;2023-02-13T15:31:52;10.53;;;6.83;;
1224;SDS011;602;48.000;7.840;2023-02-13T15:34:19;10.53;;;7.07;;
1224;SDS011;602;48.000;7.840;2023-02-13T15:36:50;9.70;;;6.60;;
1224;SDS011;602;48.000;7.840;2023-02-13T15:39:19;9.90;;;7.50;;
1224;SDS011;602;48.000;7.840;2023-02-13T15:41:51;13.97;;;6.80;;
1224;SDS011;602;48.000;7.840;2023-02-13T15:44:21;9.63;;;7.03;;
1224;SDS011;602;48.000;7.840;2023-02-13T15:46:50;11.53;;;7.30;;
1224;SDS011;602;48.000;7.840;2023-02-13T15:49:19;12.47;;;7.90;;
1224;SDS011;602;48.000;7.840;2023-02-13T15:51:48;8.20;;;5.87;;
1224;SDS011;602;48.000;7.840;2023-02-13T15:54:26;9.73;;;6.37;;
1224;SDS011;602;48.000;7.840;2023-02-13T15:56:55;10.70;;;8.10;;
1224;SDS011;602;48.000;7.840;2023-02-13T15:59:25;8.03;;;5.77;;
1224;SDS011;602;48.000;7.840;2023-02-13T16:01:56;12.60;;;7.43;;
1224;SDS011;602;48.000;7.840;2023-02-13T16:04:24;9.50;;;5.63;;
1224;SDS011;602;48.000;7.840;2023-02-13T16:06:52;14.43;;;6.37;;
1224;SDS011;602;48.000;7.840;2023-02-13T16:09:22;11.23;;;6.80;;
1224;SDS011;602;48.000;7.840;2023-02-13T16:11:51;9.53;;;7.20;;
1224;SDS011;602;48.000;7.840;2023-02-13T16:14:21;12.57;;;8.67;;
1224;SDS011;602;48.000;7.840;2023-02-13T16:16:51;15.77;;;9.87;;
1224;SDS011;602;48.000;7.840;2023-02-13T16:19:24;12.30;;;7.53;;
1224;SDS011;602;48.000;7.840;2023-02-13T16:22:02;9.50;;;7.50;;
1224;SDS011;602;48.000;7.840;2023-02-13T16:24:32;13.70;;;9.27;;
1224;SDS011;602;48.000;7.840;2023-02-13T16:27:00;13.07;;;8.90;;